sensor_id;sensor_type;location;lat;lon;timestamp;P1;durP1;ratioP1;P2;durP2;ratioP2
22632;SDS011;11483;55.828;37.488;2023-04-19T00:00:36;19.20;;;7.95;;
22632;SDS011;11483;55.828;37.488;2023-04-19T00:03:02;29.67;;;8.40;;
22632;SDS011;11483;55.828;37.488;2023-04-19T00:05:30;15.93;;;7.97;;
22632;SDS011;11483;55.828;37.488;2023-04-19T00:07:57;15.43;;;7.38;;
22632;SDS011;11483;55.828;37.488;2023-04-19T00:10:23;23.48;;;8.00;;
22632;SDS011;11483;55.828;37.488;2023-04-19T00:12:50;15.85;;;7.63;;
22632;SDS011;11483;55.828;37.488;2023-04-19T00:15:16;15.00;;;7.45;;
22632;SDS011;11483;55.828;37.488;2023-04-19T00:17:42;21.05;;;6.90;;
22632;SDS011;11483;55.828;37.488;2023-04-19T00:20:09;20.80;;;7.57;;
22632;SDS011;11483;55.828;37.488;2023-04-19T00:22:37;17.98;;;6.97;;
22632;SDS011;11483;55.828;37.488;2023-04-19T00:25:03;14.70;;;7.68;;
22632;SDS011;11483;55.828;37.488;2023-04-19T00:27:30;21.08;;;7.68;;
22632;SDS011;11483;55.828;37.488;2023-04-19T00:29:56;17.05;;;6.80;;
22632;SDS011;11483;55.828;37.488;2023-04-19T00:32:22;16.85;;;6.88;;
22632;SDS011;11483;55.828;37.488;2023-04-19T00:34:48;16.65;;;7.28;;
22632;SDS011;11483;55.828;37.488;2023-04-19T00:37:14;16.52;;;7.35;;
22632;SDS011;11483;55.828;37.488;2023-04-19T00:39:40;16.88;;;7.57;;
22632;SDS011;11483;55.828;37.488;2023-04-19T00:42:06;13.80;;;6.90;;
22632;SDS011;11483;55.828;37.488;2023-04-19T00:44:32;20.15;;;6.80;;
22632;SDS011;11483;55.828;37.488;2023-04-19T00:46:58;18.92;;;7.18;;
22632;SDS011;11483;55.828;37.488;2023-04-19T00:49:25;17.60;;;6.93;;
22632;SDS011;11483;55.828;37.488;2023-04-19T00:51:51;23.30;;;7.65;;
22632;SDS011;11483;55.828;37.488;2023-04-19T00:54:18;20.42;;;7.63;;
22632;SDS011;11483;55.828;37.488;2023-04-19T00:56:44;13.90;;;6.25;;
22632;SDS011;11483;55.828;37.488;2023-04-19T00:59:10;14.50;;;7.28;;
22632;SDS011;11483;55.828;37.488;2023-04-19T01:01:38;18.27;;;7.88;;
22632;SDS011;11483;55.828;37.488;2023-04-19T01:04:05;13.15;;;6.80;;
22632;SDS011;11483;55.828;37.488;2023-04-19T01:06:32;12.00;;;6.65;;
22632;SDS011;11483;55.828;37.488;2023-04-19T01:09:00;21.55;;;7.15;;
22632;SDS011;11483;55.828;37.488;2023-04-19T01:11:26;15.90;;;6.90;;
22632;SDS011;11483;55.828;37.488;2023-04-19T01:13:54;15.38;;;7.20;;
22632;SDS011;11483;55.828;37.488;2023-04-19T01:16:20;20.05;;;6.38;;
22632;SDS011;11483;55.828;37.488;2023-04-19T01:18:46;21.60;;;7.40;;
22632;SDS011;11483;55.828;37.488;2023-04-19T01:21:12;22.33;;;6.50;;
22632;SDS011;11483;55.828;37.488;2023-04-19T01:23:38;13.73;;;6.80;;
22632;SDS011;11483;55.828;37.488;2023-04-19T01:26:05;17.35;;;6.68;;
22632;SDS011;11483;55.828;37.488;2023-04-19T01:28:31;16.02;;;7.25;;
22632;SDS011;11483;55.828;37.488;2023-04-19T01:30:57;12.13;;;6.65;;
22632;SDS011;11483;55.828;37.488;2023-04-19T01:33:23;13.85;;;6.70;;
22632;SDS011;11483;55.828;37.488;2023-04-19T01:35:49;13.88;;;6.72;;
22632;SDS011;11483;55.828;37.488;2023-04-19T01:38:15;12.20;;;5.97;;
22632;SDS011;11483;55.828;37.488;2023-04-19T01:40:41;17.60;;;6.38;;
22632;SDS011;11483;55.828;37.488;2023-04-19T01:43:07;19.30;;;7.30;;
22632;SDS011;11483;55.828;37.488;2023-04-19T01:45:35;22.08;;;7.05;;
22632;SDS011;11483;55.828;37.488;2023-04-19T01:48:01;12.95;;;6.50;;
22632;SDS011;11483;55.828;37.488;2023-04-19T01:50:28;16.58;;;7.80;;
22632;SDS011;11483;55.828;37.488;2023-04-19T01:52:58;16.02;;;6.35;;
22632;SDS011;11483;55.828;37.488;2023-04-19T01:55:24;19.10;;;6.35;;
22632;SDS011;11483;55.828;37.488;2023-04-19T01:57:50;18.35;;;7.03;;
22632;SDS011;11483;55.828;37.488;2023-04-19T02:00:19;12.05;;;6.40;;
22632;SDS011;11483;55.828;37.488;2023-04-19T02:02:46;19.38;;;6.55;;
22632;SDS011;11483;55.828;37.488;2023-04-19T02:05:12;17.75;;;6.15;;
22632;SDS011;11483;55.828;37.488;2023-04-19T02:07:38;19.98;;;6.88;;
22632;SDS011;11483;55.828;37.488;2023-04-19T02:10:04;12.57;;;6.10;;
22632;SDS011;11483;55.828;37.488;2023-04-19T02:12:31;14.70;;;6.15;;
22632;SDS011;11483;55.828;37.488;2023-04-19T02:14:59;14.90;;;6.10;;
22632;SDS011;11483;55.828;37.488;2023-04-19T02:17:27;13.77;;;6.05;;
22632;SDS011;11483;55.828;37.488;2023-04-19T02:19:54;15.52;;;6.88;;
22632;SDS011;11483;55.828;37.488;2023-04-19T02:22:20;15.95;;;6.93;;
22632;SDS011;11483;55.828;37.488;2023-04-19T02:24:48;13.93;;;6.88;;
22632;SDS011;11483;55.828;37.488;2023-04-19T02:27:14;14.68;;;6.28;;
22632;SDS011;11483;55.828;37.488;2023-04-19T02:29:40;14.52;;;6.07;;
22632;SDS011;11483;55.828;37.488;2023-04-19T02:32:06;19.75;;;6.15;;
22632;SDS011;11483;55.828;37.488;2023-04-19T02:34:32;16.92;;;6.47;;
22632;SDS011;11483;55.828;37.488;2023-04-19T02:36:59;15.10;;;6.80;;
22632;SDS011;11483;55.828;37.488;2023-04-19T02:39:25;12.38;;;6.03;;
22632;SDS011;11483;55.828;37.488;2023-04-19T02:41:51;13.70;;;5.93;;
22632;SDS011;11483;55.828;37.488;2023-04-19T02:44:16;11.40;;;5.82;;
22632;SDS011;11483;55.828;37.488;2023-04-19T02:46:49;14.27;;;6.30;;
22632;SDS011;11483;55.828;37.488;2023-04-19T02:49:18;12.15;;;5.63;;
22632;SDS011;11483;55.828;37.488;2023-04-19T02:51:45;15.13;;;6.15;;
22632;SDS011;11483;55.828;37.488;2023-04-19T02:54:11;13.57;;;6.40;;
22632;SDS011;11483;55.828;37.488;2023-04-19T02:56:37;26.88;;;6.20;;
22632;SDS011;11483;55.828;37.488;2023-04-19T02:59:03;16.85;;;6.30;;
22632;SDS011;11483;55.828;37.488;2023-04-19T03:01:29;12.07;;;5.60;;
22632;SDS011;11483;55.828;37.488;2023-04-19T03:03:56;26.25;;;6.53;;
22632;SDS011;11483;55.828;37.488;2023-04-19T03:06:22;12.27;;;6.40;;
22632;SDS011;11483;55.828;37.488;2023-04-19T03:08:48;18.60;;;6.05;;
22632;SDS011;11483;55.828;37.488;2023-04-19T03:11:15;12.25;;;5.78;;
22632;SDS011;11483;55.828;37.488;2023-04-19T03:13:41;14.52;;;6.05;;
22632;SDS011;11483;55.828;37.488;2023-04-19T03:16:07;11.93;;;6.00;;
22632;SDS011;11483;55.828;37.488;2023-04-19T03:18:33;18.92;;;5.75;;
22632;SDS011;11483;55.828;37.488;2023-04-19T03:21:00;18.98;;;6.13;;
22632;SDS011;11483;55.828;37.488;2023-04-19T03:23:26;13.23;;;6.40;;
22632;SDS011;11483;55.828;37.488;2023-04-19T03:25:52;12.70;;;6.07;;
22632;SDS011;11483;55.828;37.488;2023-04-19T03:28:18;11.68;;;5.90;;
22632;SDS011;11483;55.828;37.488;2023-04-19T03:30:44;11.05;;;6.15;;
22632;SDS011;11483;55.828;37.488;2023-04-19T03:33:10;14.88;;;6.07;;
22632;SDS011;11483;55.828;37.488;2023-04-19T03:35:36;10.93;;;5.65;;
22632;SDS011;11483;55.828;37.488;2023-04-19T03:38:02;12.93;;;6.28;;
22632;SDS011;11483;55.828;37.488;2023-04-19T03:40:29;13.77;;;5.78;;
22632;SDS011;11483;55.828;37.488;2023-04-19T03:42:57;15.43;;;6.05;;
22632;SDS011;11483;55.828;37.488;2023-04-19T03:45:23;16.48;;;6.43;;
22632;SDS011;11483;55.828;37.488;2023-04-19T03:47:49;8.88;;;5.35;;
22632;SDS011;11483;55.828;37.488;2023-04-19T03:50:15;13.73;;;5.70;;
22632;SDS011;11483;55.828;37.488;2023-04-19T03:52:41;11.90;;;5.95;;
22632;SDS011;11483;55.828;37.488;2023-04-19T03:55:07;13.90;;;6.00;;
22632;SDS011;11483;55.828;37.488;2023-04-19T03:57:33;15.48;;;6.18;;
22632;SDS011;11483;55.828;37.488;2023-04-19T03:59:59;14.73;;;6.15;;
22632;SDS011;11483;55.828;37.488;2023-04-19T04:02:25;16.02;;;5.68;;
22632;SDS011;11483;55.828;37.488;2023-04-19T04:04:54;14.25;;;5.82;;
22632;SDS011;11483;55.828;37.488;2023-04-19T04:07:20;13.98;;;5.43;;
22632;SDS011;11483;55.828;37.488;2023-04-19T04:09:47;12.05;;;5.85;;
22632;SDS011;11483;55.828;37.488;2023-04-19T04:12:13;10.32;;;6.13;;
22632;SDS011;11483;55.828;37.488;2023-04-19T04:14:40;18.13;;;6.00;;
22632;SDS011;11483;55.828;37.488;2023-04-19T04:17:05;15.25;;;5.65;;
22632;SDS011;11483;55.828;37.488;2023-04-19T04:19:31;17.98;;;6.10;;
22632;SDS011;11483;55.828;37.488;2023-04-19T04:21:57;19.52;;;5.45;;
22632;SDS011;11483;55.828;37.488;2023-04-19T04:24:23;14.82;;;6.45;;
22632;SDS011;11483;55.828;37.488;2023-04-19T04:26:50;20.10;;;6.90;;
22632;SDS011;11483;55.828;37.488;2023-04-19T04:29:16;23.65;;;6.88;;
22632;SDS011;11483;55.828;37.488;2023-04-19T04:31:42;26.98;;;6.47;;
22632;SDS011;11483;55.828;37.488;2023-04-19T04:34:08;17.50;;;6.22;;
22632;SDS011;11483;55.828;37.488;2023-04-19T04:36:34;25.48;;;6.20;;
22632;SDS011;11483;55.828;37.488;2023-04-19T04:39:03;11.50;;;6.00;;
22632;SDS011;11483;55.828;37.488;2023-04-19T04:41:30;15.32;;;5.95;;
22632;SDS011;11483;55.828;37.488;2023-04-19T04:43:56;13.77;;;5.70;;
22632;SDS011;11483;55.828;37.488;2023-04-19T04:46:24;28.13;;;6.93;;
22632;SDS011;11483;55.828;37.488;2023-04-19T04:48:51;14.05;;;6.57;;
22632;SDS011;11483;55.828;37.488;2023-04-19T04:51:17;15.55;;;6.07;;
22632;SDS011;11483;55.828;37.488;2023-04-19T04:53:43;15.63;;;6.72;;
22632;SDS011;11483;55.828;37.488;2023-04-19T04:56:10;13.63;;;6.20;;
22632;SDS011;11483;55.828;37.488;2023-04-19T04:58:35;14.48;;;6.20;;
22632;SDS011;11483;55.828;37.488;2023-04-19T05:01:01;14.55;;;6.07;;
22632;SDS011;11483;55.828;37.488;2023-04-19T05:03:27;17.42;;;6.55;;
22632;SDS011;11483;55.828;37.488;2023-04-19T05:05:53;16.67;;;6.03;;
22632;SDS011;11483;55.828;37.488;2023-04-19T05:08:20;16.20;;;6.40;;
22632;SDS011;11483;55.828;37.488;2023-04-19T05:10:46;16.65;;;5.85;;
22632;SDS011;11483;55.828;37.488;2023-04-19T05:13:12;13.98;;;5.80;;
22632;SDS011;11483;55.828;37.488;2023-04-19T05:15:38;9.98;;;5.22;;
22632;SDS011;11483;55.828;37.488;2023-04-19T05:18:04;10.30;;;5.78;;
22632;SDS011;11483;55.828;37.488;2023-04-19T05:20:30;19.48;;;5.72;;
22632;SDS011;11483;55.828;37.488;2023-04-19T05:22:58;13.52;;;5.85;;
22632;SDS011;11483;55.828;37.488;2023-04-19T05:25:25;10.23;;;4.55;;
22632;SDS011;11483;55.828;37.488;2023-04-19T05:27:52;9.68;;;4.95;;
22632;SDS011;11483;55.828;37.488;2023-04-19T05:30:18;13.45;;;5.30;;
22632;SDS011;11483;55.828;37.488;2023-04-19T05:32:43;14.20;;;5.00;;
22632;SDS011;11483;55.828;37.488;2023-04-19T05:35:10;12.15;;;4.90;;
22632;SDS011;11483;55.828;37.488;2023-04-19T05:37:36;11.32;;;5.28;;
22632;SDS011;11483;55.828;37.488;2023-04-19T05:40:03;26.05;;;6.03;;
22632;SDS011;11483;55.828;37.488;2023-04-19T05:42:33;19.23;;;5.18;;
22632;SDS011;11483;55.828;37.488;2023-04-19T05:44:59;19.30;;;5.32;;
22632;SDS011;11483;55.828;37.488;2023-04-19T05:47:25;18.83;;;5.93;;
22632;SDS011;11483;55.828;37.488;2023-04-19T05:49:51;16.15;;;5.38;;
22632;SDS011;11483;55.828;37.488;2023-04-19T05:52:17;13.40;;;5.07;;
22632;SDS011;11483;55.828;37.488;2023-04-19T05:54:43;16.15;;;5.80;;
22632;SDS011;11483;55.828;37.488;2023-04-19T05:57:09;9.57;;;5.07;;
22632;SDS011;11483;55.828;37.488;2023-04-19T05:59:34;23.63;;;5.18;;
22632;SDS011;11483;55.828;37.488;2023-04-19T06:02:00;10.82;;;5.45;;
22632;SDS011;11483;55.828;37.488;2023-04-19T06:04:27;18.13;;;5.75;;
22632;SDS011;11483;55.828;37.488;2023-04-19T06:06:52;13.82;;;5.25;;
22632;SDS011;11483;55.828;37.488;2023-04-19T06:09:18;17.73;;;5.30;;
22632;SDS011;11483;55.828;37.488;2023-04-19T06:11:45;12.32;;;4.90;;
22632;SDS011;11483;55.828;37.488;2023-04-19T06:14:11;17.08;;;5.82;;
22632;SDS011;11483;55.828;37.488;2023-04-19T06:16:40;16.70;;;5.40;;
22632;SDS011;11483;55.828;37.488;2023-04-19T06:19:06;8.43;;;4.90;;
22632;SDS011;11483;55.828;37.488;2023-04-19T06:21:32;11.18;;;4.95;;
22632;SDS011;11483;55.828;37.488;2023-04-19T06:23:58;15.23;;;5.20;;
22632;SDS011;11483;55.828;37.488;2023-04-19T06:26:24;15.73;;;4.70;;
22632;SDS011;11483;55.828;37.488;2023-04-19T06:28:50;9.52;;;4.40;;
22632;SDS011;11483;55.828;37.488;2023-04-19T06:31:16;7.18;;;3.67;;
22632;SDS011;11483;55.828;37.488;2023-04-19T06:33:42;15.15;;;3.97;;
22632;SDS011;11483;55.828;37.488;2023-04-19T06:36:08;13.10;;;3.72;;
22632;SDS011;11483;55.828;37.488;2023-04-19T06:38:35;8.80;;;3.80;;
22632;SDS011;11483;55.828;37.488;2023-04-19T06:41:02;18.00;;;3.60;;
22632;SDS011;11483;55.828;37.488;2023-04-19T06:43:29;11.63;;;4.20;;
22632;SDS011;11483;55.828;37.488;2023-04-19T06:45:58;16.02;;;4.13;;
22632;SDS011;11483;55.828;37.488;2023-04-19T06:48:24;16.73;;;4.22;;
22632;SDS011;11483;55.828;37.488;2023-04-19T06:50:50;13.40;;;3.60;;
22632;SDS011;11483;55.828;37.488;2023-04-19T06:53:16;21.65;;;3.72;;
22632;SDS011;11483;55.828;37.488;2023-04-19T06:55:42;12.18;;;3.63;;
22632;SDS011;11483;55.828;37.488;2023-04-19T06:58:08;12.38;;;3.83;;
22632;SDS011;11483;55.828;37.488;2023-04-19T07:00:35;9.95;;;3.90;;
22632;SDS011;11483;55.828;37.488;2023-04-19T07:03:01;14.82;;;3.95;;
22632;SDS011;11483;55.828;37.488;2023-04-19T07:05:28;6.43;;;3.17;;
22632;SDS011;11483;55.828;37.488;2023-04-19T07:07:54;11.07;;;4.40;;
22632;SDS011;11483;55.828;37.488;2023-04-19T07:10:20;13.63;;;3.55;;
22632;SDS011;11483;55.828;37.488;2023-04-19T07:12:46;10.15;;;4.15;;
22632;SDS011;11483;55.828;37.488;2023-04-19T07:15:12;14.10;;;4.03;;
22632;SDS011;11483;55.828;37.488;2023-04-19T07:17:38;10.50;;;3.90;;
22632;SDS011;11483;55.828;37.488;2023-04-19T07:20:04;11.27;;;3.67;;
22632;SDS011;11483;55.828;37.488;2023-04-19T07:22:31;12.13;;;3.85;;
22632;SDS011;11483;55.828;37.488;2023-04-19T07:27:23;6.47;;;3.80;;
22632;SDS011;11483;55.828;37.488;2023-04-19T07:29:50;11.20;;;4.40;;
22632;SDS011;11483;55.828;37.488;2023-04-19T07:32:16;10.73;;;3.45;;
22632;SDS011;11483;55.828;37.488;2023-04-19T07:34:42;9.27;;;3.92;;
22632;SDS011;11483;55.828;37.488;2023-04-19T07:37:10;14.35;;;3.70;;
22632;SDS011;11483;55.828;37.488;2023-04-19T07:39:36;9.20;;;3.45;;
22632;SDS011;11483;55.828;37.488;2023-04-19T07:42:03;19.73;;;3.80;;
22632;SDS011;11483;55.828;37.488;2023-04-19T07:44:29;15.95;;;4.38;;
22632;SDS011;11483;55.828;37.488;2023-04-19T07:46:54;10.02;;;3.92;;
22632;SDS011;11483;55.828;37.488;2023-04-19T07:49:20;18.17;;;4.20;;
22632;SDS011;11483;55.828;37.488;2023-04-19T07:51:46;8.52;;;3.72;;
22632;SDS011;11483;55.828;37.488;2023-04-19T07:54:12;12.32;;;3.95;;
22632;SDS011;11483;55.828;37.488;2023-04-19T07:56:40;13.43;;;4.63;;
22632;SDS011;11483;55.828;37.488;2023-04-19T07:59:06;6.90;;;4.05;;
22632;SDS011;11483;55.828;37.488;2023-04-19T08:01:32;14.82;;;4.32;;
22632;SDS011;11483;55.828;37.488;2023-04-19T08:03:58;17.33;;;4.50;;
22632;SDS011;11483;55.828;37.488;2023-04-19T08:06:24;9.40;;;4.15;;
22632;SDS011;11483;55.828;37.488;2023-04-19T08:08:51;13.98;;;3.88;;
22632;SDS011;11483;55.828;37.488;2023-04-19T08:11:16;9.25;;;4.38;;
22632;SDS011;11483;55.828;37.488;2023-04-19T08:13:42;17.67;;;5.45;;
22632;SDS011;11483;55.828;37.488;2023-04-19T08:16:08;10.63;;;4.55;;
22632;SDS011;11483;55.828;37.488;2023-04-19T08:18:34;17.88;;;4.25;;
22632;SDS011;11483;55.828;37.488;2023-04-19T08:21:00;11.43;;;4.63;;
22632;SDS011;11483;55.828;37.488;2023-04-19T08:23:26;18.73;;;5.18;;
22632;SDS011;11483;55.828;37.488;2023-04-19T08:25:52;13.35;;;4.60;;
22632;SDS011;11483;55.828;37.488;2023-04-19T08:28:18;13.90;;;5.72;;
22632;SDS011;11483;55.828;37.488;2023-04-19T08:30:44;16.38;;;4.90;;
22632;SDS011;11483;55.828;37.488;2023-04-19T08:33:10;14.65;;;4.90;;
22632;SDS011;11483;55.828;37.488;2023-04-19T08:35:36;16.60;;;5.03;;
22632;SDS011;11483;55.828;37.488;2023-04-19T08:38:05;17.23;;;4.88;;
22632;SDS011;11483;55.828;37.488;2023-04-19T08:40:31;12.07;;;4.18;;
22632;SDS011;11483;55.828;37.488;2023-04-19T08:42:57;16.20;;;4.95;;
22632;SDS011;11483;55.828;37.488;2023-04-19T08:57:37;12.25;;;4.70;;
22632;SDS011;11483;55.828;37.488;2023-04-19T09:00:02;10.83;;;4.23;;
22632;SDS011;11483;55.828;37.488;2023-04-19T09:02:43;9.18;;;4.25;;
22632;SDS011;11483;55.828;37.488;2023-04-19T09:05:13;17.58;;;4.30;;
22632;SDS011;11483;55.828;37.488;2023-04-19T09:07:39;14.15;;;4.45;;
22632;SDS011;11483;55.828;37.488;2023-04-19T09:10:10;10.05;;;4.28;;
22632;SDS011;11483;55.828;37.488;2023-04-19T09:12:40;15.10;;;4.65;;
22632;SDS011;11483;55.828;37.488;2023-04-19T09:15:06;8.70;;;4.35;;
22632;SDS011;11483;55.828;37.488;2023-04-19T09:17:34;9.50;;;4.32;;
22632;SDS011;11483;55.828;37.488;2023-04-19T09:20:02;9.95;;;4.18;;
22632;SDS011;11483;55.828;37.488;2023-04-19T09:22:29;12.32;;;4.72;;
22632;SDS011;11483;55.828;37.488;2023-04-19T09:24:56;9.50;;;4.45;;
22632;SDS011;11483;55.828;37.488;2023-04-19T09:27:25;10.13;;;4.60;;
22632;SDS011;11483;55.828;37.488;2023-04-19T09:29:58;15.10;;;4.65;;
22632;SDS011;11483;55.828;37.488;2023-04-19T09:32:26;15.30;;;4.45;;
22632;SDS011;11483;55.828;37.488;2023-04-19T09:34:54;15.45;;;4.50;;
22632;SDS011;11483;55.828;37.488;2023-04-19T09:37:22;10.00;;;4.53;;
22632;SDS011;11483;55.828;37.488;2023-04-19T09:39:48;13.93;;;4.32;;
22632;SDS011;11483;55.828;37.488;2023-04-19T09:42:14;7.57;;;3.97;;
22632;SDS011;11483;55.828;37.488;2023-04-19T09:44:54;13.70;;;4.40;;
22632;SDS011;11483;55.828;37.488;2023-04-19T09:47:23;15.40;;;4.53;;
22632;SDS011;11483;55.828;37.488;2023-04-19T09:50:03;12.70;;;4.50;;
22632;SDS011;11483;55.828;37.488;2023-04-19T09:52:31;5.63;;;3.42;;
22632;SDS011;11483;55.828;37.488;2023-04-19T09:55:01;8.55;;;4.43;;
22632;SDS011;11483;55.828;37.488;2023-04-19T09:57:29;7.88;;;4.38;;
22632;SDS011;11483;55.828;37.488;2023-04-19T09:59:57;13.80;;;4.63;;
22632;SDS011;11483;55.828;37.488;2023-04-19T10:02:24;14.98;;;4.65;;
22632;SDS011;11483;55.828;37.488;2023-04-19T10:04:55;11.27;;;4.65;;
22632;SDS011;11483;55.828;37.488;2023-04-19T10:07:22;10.23;;;4.30;;
22632;SDS011;11483;55.828;37.488;2023-04-19T10:09:49;10.70;;;4.70;;
22632;SDS011;11483;55.828;37.488;2023-04-19T10:12:18;8.63;;;4.72;;
22632;SDS011;11483;55.828;37.488;2023-04-19T10:14:46;15.23;;;4.68;;
22632;SDS011;11483;55.828;37.488;2023-04-19T10:17:12;9.75;;;4.35;;
22632;SDS011;11483;55.828;37.488;2023-04-19T10:19:38;9.80;;;4.50;;
22632;SDS011;11483;55.828;37.488;2023-04-19T10:22:05;14.45;;;4.43;;
22632;SDS011;11483;55.828;37.488;2023-04-19T10:24:33;8.30;;;4.95;;
22632;SDS011;11483;55.828;37.488;2023-04-19T10:29:53;11.15;;;4.90;;
22632;SDS011;11483;55.828;37.488;2023-04-19T10:32:20;10.02;;;4.35;;
22632;SDS011;11483;55.828;37.488;2023-04-19T10:34:46;9.43;;;4.40;;
22632;SDS011;11483;55.828;37.488;2023-04-19T10:37:20;14.20;;;4.65;;
22632;SDS011;11483;55.828;37.488;2023-04-19T10:39:48;11.02;;;4.05;;
22632;SDS011;11483;55.828;37.488;2023-04-19T10:42:14;10.20;;;3.95;;
22632;SDS011;11483;55.828;37.488;2023-04-19T10:44:40;10.55;;;4.35;;
22632;SDS011;11483;55.828;37.488;2023-04-19T10:47:06;18.80;;;3.92;;
22632;SDS011;11483;55.828;37.488;2023-04-19T11:07:24;14.47;;;4.30;;
22632;SDS011;11483;55.828;37.488;2023-04-19T11:09:51;7.82;;;3.60;;
22632;SDS011;11483;55.828;37.488;2023-04-19T11:12:17;11.63;;;3.80;;
22632;SDS011;11483;55.828;37.488;2023-04-19T11:14:50;9.30;;;3.58;;
22632;SDS011;11483;55.828;37.488;2023-04-19T11:17:24;10.95;;;3.80;;
22632;SDS011;11483;55.828;37.488;2023-04-19T11:19:54;12.30;;;3.92;;
22632;SDS011;11483;55.828;37.488;2023-04-19T11:22:37;12.15;;;3.85;;
22632;SDS011;11483;55.828;37.488;2023-04-19T11:27:38;10.48;;;3.63;;
22632;SDS011;11483;55.828;37.488;2023-04-19T11:30:09;5.28;;;3.55;;
22632;SDS011;11483;55.828;37.488;2023-04-19T11:32:36;12.00;;;3.90;;
22632;SDS011;11483;55.828;37.488;2023-04-19T11:35:09;7.78;;;3.65;;
22632;SDS011;11483;55.828;37.488;2023-04-19T11:37:36;6.63;;;3.90;;
22632;SDS011;11483;55.828;37.488;2023-04-19T11:40:06;10.13;;;3.42;;
22632;SDS011;11483;55.828;37.488;2023-04-19T11:42:37;11.18;;;3.85;;
22632;SDS011;11483;55.828;37.488;2023-04-19T11:47:31;17.10;;;3.88;;
22632;SDS011;11483;55.828;37.488;2023-04-19T11:50:22;11.83;;;4.33;;
22632;SDS011;11483;55.828;37.488;2023-04-19T11:52:57;10.48;;;4.00;;
22632;SDS011;11483;55.828;37.488;2023-04-19T11:55:23;14.52;;;4.53;;
22632;SDS011;11483;55.828;37.488;2023-04-19T11:57:49;10.17;;;4.43;;
22632;SDS011;11483;55.828;37.488;2023-04-19T12:00:15;13.20;;;4.37;;
22632;SDS011;11483;55.828;37.488;2023-04-19T12:02:53;10.48;;;4.47;;
22632;SDS011;11483;55.828;37.488;2023-04-19T12:05:19;17.60;;;4.30;;
22632;SDS011;11483;55.828;37.488;2023-04-19T12:08:01;14.00;;;3.58;;
22632;SDS011;11483;55.828;37.488;2023-04-19T12:10:32;7.97;;;3.83;;
22632;SDS011;11483;55.828;37.488;2023-04-19T12:13:00;5.90;;;3.90;;
22632;SDS011;11483;55.828;37.488;2023-04-19T12:15:44;6.10;;;3.50;;
22632;SDS011;11483;55.828;37.488;2023-04-19T12:18:12;7.25;;;4.03;;
22632;SDS011;11483;55.828;37.488;2023-04-19T12:20:42;8.68;;;3.80;;
22632;SDS011;11483;55.828;37.488;2023-04-19T12:23:11;11.35;;;4.68;;
22632;SDS011;11483;55.828;37.488;2023-04-19T12:25:44;9.35;;;3.97;;
22632;SDS011;11483;55.828;37.488;2023-04-19T12:28:12;29.98;;;4.07;;
22632;SDS011;11483;55.828;37.488;2023-04-19T12:30:39;11.13;;;5.00;;
22632;SDS011;11483;55.828;37.488;2023-04-19T12:33:06;12.50;;;4.43;;
22632;SDS011;11483;55.828;37.488;2023-04-19T12:35:32;6.32;;;3.80;;
22632;SDS011;11483;55.828;37.488;2023-04-19T12:37:59;11.02;;;4.63;;
22632;SDS011;11483;55.828;37.488;2023-04-19T12:40:26;23.58;;;4.30;;
22632;SDS011;11483;55.828;37.488;2023-04-19T12:42:53;6.72;;;4.15;;
22632;SDS011;11483;55.828;37.488;2023-04-19T12:45:19;7.68;;;4.18;;
22632;SDS011;11483;55.828;37.488;2023-04-19T12:47:46;6.47;;;4.25;;
22632;SDS011;11483;55.828;37.488;2023-04-19T12:50:13;14.38;;;4.18;;
22632;SDS011;11483;55.828;37.488;2023-04-19T12:52:40;12.50;;;4.63;;
22632;SDS011;11483;55.828;37.488;2023-04-19T12:55:07;8.80;;;4.28;;
22632;SDS011;11483;55.828;37.488;2023-04-19T12:57:33;9.80;;;4.18;;
22632;SDS011;11483;55.828;37.488;2023-04-19T12:59:59;9.75;;;4.07;;
22632;SDS011;11483;55.828;37.488;2023-04-19T13:02:25;4.88;;;3.92;;
22632;SDS011;11483;55.828;37.488;2023-04-19T13:04:51;9.23;;;4.63;;
22632;SDS011;11483;55.828;37.488;2023-04-19T13:07:17;9.77;;;3.88;;
22632;SDS011;11483;55.828;37.488;2023-04-19T13:09:42;11.65;;;4.28;;
22632;SDS011;11483;55.828;37.488;2023-04-19T13:12:08;10.13;;;4.40;;
22632;SDS011;11483;55.828;37.488;2023-04-19T13:14:34;12.32;;;4.25;;
22632;SDS011;11483;55.828;37.488;2023-04-19T13:17:00;13.65;;;4.10;;
22632;SDS011;11483;55.828;37.488;2023-04-19T13:19:26;15.27;;;3.90;;
22632;SDS011;11483;55.828;37.488;2023-04-19T13:21:52;7.20;;;3.83;;
22632;SDS011;11483;55.828;37.488;2023-04-19T13:24:18;7.55;;;4.40;;
22632;SDS011;11483;55.828;37.488;2023-04-19T13:26:44;8.52;;;3.67;;
22632;SDS011;11483;55.828;37.488;2023-04-19T13:29:12;11.23;;;4.13;;
22632;SDS011;11483;55.828;37.488;2023-04-19T13:31:39;6.38;;;3.78;;
22632;SDS011;11483;55.828;37.488;2023-04-19T13:34:07;10.27;;;3.30;;
22632;SDS011;11483;55.828;37.488;2023-04-19T13:36:33;11.65;;;3.40;;
22632;SDS011;11483;55.828;37.488;2023-04-19T13:38:59;7.53;;;3.85;;
22632;SDS011;11483;55.828;37.488;2023-04-19T13:41:25;11.43;;;3.78;;
22632;SDS011;11483;55.828;37.488;2023-04-19T13:43:51;8.50;;;3.83;;
22632;SDS011;11483;55.828;37.488;2023-04-19T13:46:18;9.68;;;5.03;;
22632;SDS011;11483;55.828;37.488;2023-04-19T13:48:44;9.15;;;4.43;;
22632;SDS011;11483;55.828;37.488;2023-04-19T13:51:09;12.43;;;5.28;;
22632;SDS011;11483;55.828;37.488;2023-04-19T13:53:36;14.77;;;8.75;;
22632;SDS011;11483;55.828;37.488;2023-04-19T13:56:04;16.73;;;7.35;;
22632;SDS011;11483;55.828;37.488;2023-04-19T13:58:33;13.52;;;7.50;;
22632;SDS011;11483;55.828;37.488;2023-04-19T14:01:00;13.02;;;6.03;;
22632;SDS011;11483;55.828;37.488;2023-04-19T14:03:26;14.10;;;6.35;;
22632;SDS011;11483;55.828;37.488;2023-04-19T14:05:52;9.20;;;4.80;;
22632;SDS011;11483;55.828;37.488;2023-04-19T14:08:18;13.50;;;4.22;;
22632;SDS011;11483;55.828;37.488;2023-04-19T14:10:43;10.48;;;5.07;;
22632;SDS011;11483;55.828;37.488;2023-04-19T14:13:09;9.35;;;4.85;;
22632;SDS011;11483;55.828;37.488;2023-04-19T14:15:35;10.25;;;5.53;;
22632;SDS011;11483;55.828;37.488;2023-04-19T14:18:01;11.07;;;5.38;;
22632;SDS011;11483;55.828;37.488;2023-04-19T14:20:27;8.68;;;5.10;;
22632;SDS011;11483;55.828;37.488;2023-04-19T14:22:53;10.75;;;6.22;;
22632;SDS011;11483;55.828;37.488;2023-04-19T14:25:24;15.88;;;7.43;;
22632;SDS011;11483;55.828;37.488;2023-04-19T14:27:50;20.58;;;7.38;;
22632;SDS011;11483;55.828;37.488;2023-04-19T14:30:17;14.70;;;7.38;;
22632;SDS011;11483;55.828;37.488;2023-04-19T14:32:44;12.13;;;5.28;;
22632;SDS011;11483;55.828;37.488;2023-04-19T14:35:10;9.82;;;4.70;;
22632;SDS011;11483;55.828;37.488;2023-04-19T14:37:36;12.95;;;4.05;;
22632;SDS011;11483;55.828;37.488;2023-04-19T14:40:03;12.20;;;4.07;;
22632;SDS011;11483;55.828;37.488;2023-04-19T14:42:29;13.27;;;4.45;;
22632;SDS011;11483;55.828;37.488;2023-04-19T14:44:56;10.48;;;4.60;;
22632;SDS011;11483;55.828;37.488;2023-04-19T14:47:22;12.70;;;4.88;;
22632;SDS011;11483;55.828;37.488;2023-04-19T14:49:48;10.67;;;4.80;;
22632;SDS011;11483;55.828;37.488;2023-04-19T14:52:14;11.70;;;4.63;;
22632;SDS011;11483;55.828;37.488;2023-04-19T14:54:40;16.15;;;4.85;;
22632;SDS011;11483;55.828;37.488;2023-04-19T14:57:07;11.85;;;4.10;;
22632;SDS011;11483;55.828;37.488;2023-04-19T14:59:33;8.55;;;4.28;;
22632;SDS011;11483;55.828;37.488;2023-04-19T15:01:59;10.35;;;4.65;;